createdAt,value
2018-06-19T05:26:08.330Z,99.90
2018-06-19T05:55:52.336Z,99.80
2018-06-19T06:02:07.108Z,98.20
2018-06-19T06:04:38.412Z,95.60
2018-06-19T06:07:11.599Z,96.40
2018-06-19T06:09:42.675Z,93.80
2018-06-19T06:12:13.457Z,93.40
2018-06-19T06:14:44.053Z,86.10
2018-06-19T06:17:14.239Z,76.30
2018-06-19T06:19:46.440Z,83.50
2018-06-19T06:22:16.792Z,82.00
2018-06-19T06:24:47.658Z,84.00
2018-06-19T06:27:18.152Z,70.60
2018-06-19T06:29:50.181Z,80.40
2018-06-19T06:32:21.149Z,81.60
2018-06-19T06:34:51.066Z,68.30
2018-06-19T06:37:20.745Z,66.70
2018-06-19T06:39:51.728Z,56.30
2018-06-19T06:42:24.123Z,55.60
2018-06-19T06:44:54.253Z,62.30
2018-06-19T06:47:24.758Z,59.80
2018-06-19T06:49:55.882Z,56.20
2018-06-19T06:52:26.692Z,62.50
2018-06-19T06:54:57.531Z,62.70
2018-06-19T06:57:27.394Z,58.80
2018-06-19T06:59:57.867Z,52.20
2018-06-19T07:02:29.114Z,52.10
2018-06-19T07:04:59.523Z,51.80
2018-06-19T07:07:30.544Z,52.20
2018-06-19T07:10:01.576Z,56.80
2018-06-19T07:12:35.232Z,50.90
2018-06-19T07:15:06.011Z,53.30
2018-06-19T07:17:37.024Z,52.10
2018-06-19T07:20:08.170Z,53.50
2018-06-19T07:22:41.719Z,50.40
2018-06-19T07:25:12.679Z,49.40
2018-06-19T07:27:42.340Z,52.90
2018-06-19T07:30:15.086Z,47.80
2018-06-19T07:32:46.057Z,52.40
2018-06-19T07:35:17.785Z,50.90
2018-06-19T07:37:48.358Z,47.30
2018-06-19T07:40:19.151Z,48.30
2018-06-19T07:42:49.974Z,49.30
2018-06-19T07:45:21.869Z,47.40
2018-06-19T07:47:52.985Z,46.30
2018-06-19T07:50:23.461Z,45.50
2018-06-19T07:52:54.739Z,46.60
2018-06-19T07:55:25.418Z,47.10
2018-06-19T07:57:56.377Z,46.10
2018-06-19T08:00:28.107Z,48.80
2018-06-19T08:03:02.424Z,44.20
2018-06-19T08:05:32.755Z,44.40
2018-06-19T08:08:03.331Z,46.60
2018-06-19T08:10:35.381Z,45.00
2018-06-19T08:13:05.256Z,48.10
2018-06-19T08:15:36.401Z,43.70
2018-06-19T08:18:05.947Z,43.60
2018-06-19T08:20:36.680Z,44.20
2018-06-19T08:23:07.228Z,44.80
2018-06-19T08:25:37.878Z,45.80
2018-06-19T08:28:11.629Z,46.30
2018-06-19T08:30:42.909Z,47.60
2018-06-19T08:33:13.868Z,45.70
2018-06-19T08:35:46.207Z,46.00
2018-06-19T08:38:16.528Z,46.90
2018-06-19T08:40:47.511Z,48.60
2018-06-19T08:43:18.189Z,42.80
2018-06-19T08:45:49.388Z,42.20
2018-06-19T08:48:19.713Z,43.70
2018-06-19T08:50:51.683Z,44.10
2018-06-19T08:53:23.240Z,43.50
2018-06-19T08:55:56.061Z,37.20
2018-06-19T08:58:34.093Z,42.80
2018-06-19T09:01:07.896Z,42.70
2018-06-19T09:03:40.604Z,39.30
2018-06-19T09:06:16.199Z,41.80
2018-06-19T09:08:47.195Z,39.70
2018-06-19T09:11:17.569Z,40.50
2018-06-19T09:13:48.259Z,42.50
2018-06-19T09:16:18.900Z,37.50
2018-06-19T09:18:50.155Z,39.10
2018-06-19T09:21:19.851Z,38.80
2018-06-19T09:23:52.874Z,38.70
2018-06-19T09:26:23.639Z,35.90
2018-06-19T09:28:54.315Z,39.30
2018-06-19T09:31:26.221Z,40.50
2018-06-19T09:33:56.763Z,40.50
2018-06-19T09:36:28.147Z,43.70
2018-06-19T09:38:59.152Z,42.00
2018-06-19T09:41:31.271Z,43.50
2018-06-19T09:44:01.408Z,39.00
2018-06-19T09:46:33.936Z,37.20
2018-06-19T09:49:08.810Z,38.00
2018-06-19T09:51:42.736Z,38.70
2018-06-19T09:54:16.037Z,40.00
2018-06-19T09:56:46.702Z,43.50
2018-06-19T09:59:20.228Z,44.60
2018-06-19T10:01:51.027Z,42.70
2018-06-19T10:04:21.898Z,40.30
2018-06-19T10:06:52.979Z,40.40
2018-06-19T10:09:27.681Z,40.70
2018-06-19T10:12:02.358Z,34.40
2018-06-19T10:14:33.356Z,35.50
2018-06-19T10:17:05.379Z,36.70
2018-06-19T10:19:36.361Z,37.10
2018-06-19T10:22:08.654Z,37.80
2018-06-19T10:24:39.642Z,39.50
2018-06-19T10:27:10.703Z,44.70
2018-06-19T10:29:44.305Z,38.50
2018-06-19T10:32:15.698Z,37.60
2018-06-19T10:34:45.939Z,36.90
2018-06-19T10:37:16.764Z,39.20
2018-06-19T10:39:53.964Z,33.70
2018-06-19T10:42:24.868Z,36.60
2018-06-19T10:44:56.343Z,33.70
2018-06-19T10:47:27.580Z,36.40
2018-06-19T10:49:57.985Z,36.80
2018-06-19T10:52:29.446Z,38.30
2018-06-19T10:55:00.428Z,36.50
2018-06-19T10:57:31.404Z,37.30
2018-06-19T11:00:03.580Z,38.30
2018-06-19T11:02:36.182Z,43.10
2018-06-19T11:05:09.047Z,42.20
2018-06-19T11:07:41.065Z,39.00
2018-06-19T11:10:12.706Z,34.90
2018-06-19T11:12:43.592Z,37.10
2018-06-19T11:15:15.580Z,36.30
2018-06-19T11:17:49.701Z,38.00
2018-06-19T11:20:26.746Z,37.50
2018-06-19T11:23:13.205Z,41.30
2018-06-19T11:25:49.797Z,40.20
2018-06-19T11:28:32.818Z,39.50
2018-06-19T11:31:05.279Z,38.00
2018-06-19T11:33:45.273Z,35.60
2018-06-19T11:39:12.835Z,39.90
2018-06-19T11:44:27.797Z,36.00
2018-06-19T11:52:42.665Z,39.20
2018-06-19T12:00:41.235Z,38.60
2018-06-19T12:03:19.434Z,40.40
2018-06-19T12:05:59.495Z,41.20
2018-06-19T12:08:58.607Z,35.60
2018-06-19T12:11:38.452Z,40.80
2018-06-19T12:14:26.753Z,39.00
2018-06-19T12:17:23.012Z,37.00
2018-06-19T12:19:58.314Z,34.90
2018-06-19T12:22:46.492Z,37.00
2018-06-19T12:25:26.767Z,37.40
2018-06-19T12:28:03.571Z,37.00
2018-06-19T12:30:59.316Z,40.50
2018-06-19T12:33:42.312Z,36.40
2018-06-19T12:36:19.430Z,37.80
2018-06-19T12:38:50.567Z,38.10
2018-06-19T12:50:06.453Z,39.10
2018-06-19T12:52:48.426Z,35.10
2018-06-19T12:55:35.446Z,37.70
2018-06-19T12:58:25.681Z,37.80
2018-06-19T13:01:20.437Z,39.30
2018-06-19T13:04:11.371Z,36.80
2018-06-19T13:10:00.984Z,37.10
2018-06-19T13:15:22.933Z,37.00
2018-06-19T13:18:04.448Z,35.20
2018-06-19T13:20:46.836Z,38.70
2018-06-19T13:23:26.453Z,39.70
2018-06-19T13:26:03.852Z,37.40
2018-06-19T13:33:06.256Z,38.30
2018-06-19T13:35:48.064Z,39.30
2018-06-19T13:44:19.904Z,36.60
2018-06-19T13:47:03.915Z,36.90
2018-06-19T13:49:42.760Z,41.10
2018-06-19T13:52:22.511Z,35.30
2018-06-19T13:55:04.231Z,37.30
2018-06-19T13:57:48.956Z,36.50
2018-06-19T14:00:25.008Z,36.40
2018-06-19T14:02:58.444Z,41.20
2018-06-19T14:05:29.320Z,39.70
2018-06-19T14:08:11.735Z,41.30
2018-06-19T14:10:55.559Z,38.70
2018-06-19T14:16:27.113Z,35.80
2018-06-19T14:19:13.822Z,36.60
2018-06-19T14:21:44.076Z,36.80
2018-06-19T14:24:18.953Z,37.70
2018-06-19T14:30:23.078Z,39.20
2018-06-19T14:32:59.582Z,37.60
2018-06-19T14:35:42.372Z,37.00
2018-06-19T14:40:53.163Z,37.30
2018-06-19T14:43:53.580Z,37.40
2018-06-19T14:46:29.076Z,41.40
2018-06-19T14:49:04.083Z,36.80
2018-06-19T14:51:38.782Z,35.10
2018-06-19T14:54:17.672Z,35.70
2018-06-19T14:56:57.116Z,38.50
2018-06-19T14:59:46.408Z,38.60
2018-06-19T15:02:20.364Z,41.50
2018-06-19T15:05:16.907Z,37.90
2018-06-19T15:11:32.931Z,39.90
2018-06-19T15:16:59.552Z,39.40
2018-06-19T15:20:03.503Z,39.50
2018-06-19T15:37:03.667Z,38.50
2018-06-19T16:01:25.786Z,41.00
2018-06-19T16:16:53.999Z,40.70
2018-06-19T16:28:48.249Z,40.50
2018-06-19T16:38:33.775Z,40.80
2018-06-19T16:44:38.824Z,42.20
2018-06-19T16:47:30.261Z,42.70
2018-06-19T16:50:04.976Z,43.70
2018-06-19T16:52:36.311Z,43.80
2018-06-19T16:55:13.409Z,45.90
2018-06-19T16:57:46.378Z,45.30
2018-06-19T17:00:19.203Z,44.20
2018-06-19T17:02:52.708Z,45.80
2018-06-19T17:05:26.907Z,45.30
2018-06-19T17:07:59.019Z,47.00
2018-06-19T17:10:32.852Z,47.10
2018-06-19T17:13:07.477Z,44.20
2018-06-19T17:15:42.363Z,44.00
2018-06-19T17:18:19.196Z,44.90
2018-06-19T17:20:52.899Z,44.50
2018-06-19T17:23:34.094Z,45.10
2018-06-19T17:29:08.107Z,44.80
2018-06-19T17:32:03.926Z,44.70
2018-06-19T18:08:04.501Z,46.60
2018-06-19T18:11:01.548Z,46.70
2018-06-19T18:20:34.641Z,48.70
2018-06-19T18:26:38.691Z,47.10
2018-06-19T18:44:14.377Z,50.00
2018-06-19T18:53:30.940Z,50.50
2018-06-19T18:56:20.682Z,49.80
2018-06-19T18:58:58.055Z,50.80
2018-06-19T19:01:50.953Z,51.00
2018-06-19T19:05:08.431Z,51.50
2018-06-19T19:07:42.337Z,51.50
2018-06-19T19:13:41.983Z,51.80
2018-06-19T19:16:18.058Z,52.70
2018-06-19T19:18:53.446Z,52.50
2018-06-19T19:25:12.860Z,54.60
2018-06-19T19:28:18.005Z,55.50
2018-06-19T19:30:52.352Z,57.10
2018-06-19T19:33:28.447Z,58.40
2018-06-19T19:36:13.225Z,58.10
2018-06-19T19:41:36.712Z,62.40
2018-06-19T19:49:12.887Z,67.50
2018-06-19T19:52:03.235Z,70.80
2018-06-19T19:54:39.872Z,75.10
2018-06-19T20:00:20.647Z,80.30
2018-06-19T20:11:13.106Z,90.40
2018-06-19T20:13:51.731Z,94.40
2018-06-19T20:16:34.653Z,99.90
2018-06-19T20:19:11.281Z,99.90
2018-06-19T20:21:47.021Z,99.90
2018-06-19T20:24:26.392Z,99.90
2018-06-19T20:34:15.802Z,99.90
2018-06-19T20:36:46.781Z,99.90
2018-06-19T20:39:29.955Z,99.90
2018-06-19T20:42:13.827Z,99.90
2018-06-19T20:44:53.388Z,99.90
2018-06-19T20:47:24.469Z,99.90
2018-06-19T20:49:59.555Z,99.70
2018-06-19T20:52:33.037Z,99.70
2018-06-19T20:55:05.922Z,99.90
2018-06-19T20:57:37.867Z,99.90
2018-06-19T21:00:16.506Z,99.60
2018-06-19T21:05:45.805Z,98.50
2018-06-19T21:08:18.449Z,97.90
2018-06-19T21:10:53.145Z,98.50
2018-06-19T21:13:32.496Z,99.10
2018-06-19T21:16:14.174Z,99.60
2018-06-19T21:18:55.184Z,99.90
2018-06-19T21:24:21.739Z,99.30
2018-06-19T21:29:56.679Z,99.40
2018-06-19T21:32:38.873Z,99.90
2018-06-19T21:38:38.747Z,99.70
